Time;durP1;ratioP1;P1;durP2;ratioP2;P2;SDS_P1;SDS_P2;PMS_P1;PMS_P2;Temp;Humidity;BMP_temperature;BMP_pressure;BME280_temperature;BME280_humidity;BME280_pressure;Samples;Min_cycle;Max_cycle;Signal;HPM_P1;HPM_P2
2023/02/03 00:01:09;;;;;;;0.65;0.63;;;;;;;;;;5072341;28;20059;-76
2023/02/03 00:03:38;;;;;;;0.30;0.30;;;;;;;;;;5072744;28;20127;-73
2023/02/03 00:06:08;;;;;;;2.33;1.08;;;;;;;;;;5075881;28;20404;-72
2023/02/03 00:08:37;;;;;;;0.55;0.32;;;;;;;;;;5082882;28;20392;-75
2023/02/03 00:11:05;;;;;;;0.35;0.35;;;;;;;;;;5075780;28;20074;-73
2023/02/03 00:13:34;;;;;;;0.32;0.32;;;;;;;;;;5073800;28;20481;-75
2023/02/03 00:16:05;;;;;;;0.17;0.17;;;;;;;;;;5080301;28;20044;-73
2023/02/03 00:18:33;;;;;;;0.40;0.40;;;;;;;;;;5075995;28;20048;-75
2023/02/03 00:21:01;;;;;;;0.93;0.32;;;;;;;;;;5076998;28;20071;-76
2023/02/03 00:23:31;;;;;;;0.30;0.30;;;;;;;;;;5081300;28;20052;-75
2023/02/03 00:26:06;;;;;;;5.00;0.82;;;;;;;;;;5076693;28;20043;-74
2023/02/03 00:28:35;;;;;;;0.10;0.10;;;;;;;;;;5075451;28;20036;-75
2023/02/03 00:31:03;;;;;;;0.10;0.10;;;;;;;;;;5071958;28;20359;-76
2023/02/03 00:33:32;;;;;;;0.55;0.32;;;;;;;;;;5071075;28;20049;-74
2023/02/03 00:36:04;;;;;;;0.20;0.20;;;;;;;;;;5082696;28;20079;-74
2023/02/03 00:38:34;;;;;;;0.57;0.55;;;;;;;;;;5077633;28;20075;-75
2023/02/03 00:41:02;;;;;;;0.15;0.15;;;;;;;;;;5080959;28;20047;-76
2023/02/03 00:43:31;;;;;;;0.68;0.28;;;;;;;;;;5070741;28;20043;-76
2023/02/03 00:45:59;;;;;;;2.88;0.52;;;;;;;;;;5077420;28;20052;-75
2023/02/03 00:48:27;;;;;;;0.38;0.30;;;;;;;;;;5070720;28;20045;-75
2023/02/03 00:50:56;;;;;;;0.85;0.32;;;;;;;;;;5082445;28;20048;-73
2023/02/03 00:53:24;;;;;;;0.40;0.40;;;;;;;;;;5081721;28;20056;-74
2023/02/03 00:55:53;;;;;;;0.30;0.30;;;;;;;;;;5079721;28;20048;-73
2023/02/03 00:58:22;;;;;;;0.40;0.40;;;;;;;;;;5075466;28;20056;-74
2023/02/03 01:00:51;;;;;;;0.10;0.10;;;;;;;;;;5075209;28;20044;-73
2023/02/03 01:03:19;;;;;;;0.73;0.73;;;;;;;;;;5071579;28;20212;-74
2023/02/03 01:05:47;;;;;;;0.20;0.20;;;;;;;;;;5075745;28;20057;-74
2023/02/03 01:08:15;;;;;;;1.27;0.93;;;;;;;;;;5069308;28;20402;-73
2023/02/03 01:10:44;;;;;;;0.57;0.57;;;;;;;;;;5070755;28;20044;-72
2023/02/03 01:13:14;;;;;;;0.57;0.57;;;;;;;;;;5084678;28;22749;-74
2023/02/03 01:15:46;;;;;;;0.25;0.25;;;;;;;;;;5077268;28;20048;-74
2023/02/03 01:18:15;;;;;;;0.45;0.40;;;;;;;;;;5071900;28;20056;-74
2023/02/03 01:20:43;;;;;;;0.30;0.30;;;;;;;;;;5072282;28;20052;-74
2023/02/03 01:23:11;;;;;;;0.32;0.30;;;;;;;;;;5082526;28;20072;-74
2023/02/03 01:25:39;;;;;;;1.90;0.40;;;;;;;;;;5076564;28;20060;-74
2023/02/03 01:28:08;;;;;;;6.97;0.55;;;;;;;;;;5066670;28;20493;-73
2023/02/03 01:30:37;;;;;;;0.25;0.25;;;;;;;;;;5072304;28;20094;-74
2023/02/03 01:33:06;;;;;;;2.05;1.15;;;;;;;;;;5079542;28;20385;-74
2023/02/03 01:35:35;;;;;;;0.45;0.45;;;;;;;;;;5059354;28;20040;-74
2023/02/03 01:38:03;;;;;;;0.15;0.15;;;;;;;;;;5065866;28;20075;-72
2023/02/03 01:40:31;;;;;;;0.50;0.20;;;;;;;;;;5069977;28;20041;-74
2023/02/03 01:43:00;;;;;;;0.20;0.20;;;;;;;;;;5070870;28;20167;-73
2023/02/03 01:45:28;;;;;;;0.10;0.10;;;;;;;;;;5082294;28;20054;-73
2023/02/03 01:47:59;;;;;;;0.45;0.40;;;;;;;;;;5082092;28;20047;-73
2023/02/03 01:50:28;;;;;;;0.32;0.32;;;;;;;;;;5070819;28;20041;-74
2023/02/03 01:52:59;;;;;;;1.73;0.43;;;;;;;;;;5075518;28;20398;-74
2023/02/03 01:55:29;;;;;;;0.38;0.38;;;;;;;;;;5075137;28;20055;-72
2023/02/03 01:58:00;;;;;;;3.58;0.85;;;;;;;;;;5071463;28;20052;-73
2023/02/03 02:00:28;;;;;;;0.73;0.68;;;;;;;;;;5075935;28;20487;-74
2023/02/03 02:02:59;;;;;;;0.43;0.20;;;;;;;;;;5069682;28;20076;-72
2023/02/03 02:05:30;;;;;;;0.40;0.40;;;;;;;;;;5084490;28;20056;-72
2023/02/03 02:07:59;;;;;;;1.00;0.30;;;;;;;;;;5081502;28;20055;-73
2023/02/03 02:10:29;;;;;;;3.20;0.52;;;;;;;;;;5063934;28;20136;-73
2023/02/03 02:12:57;;;;;;;0.20;0.20;;;;;;;;;;5065973;28;20057;-73
2023/02/03 02:15:29;;;;;;;0.30;0.30;;;;;;;;;;5081619;28;20131;-72
2023/02/03 02:18:18;;;;;;;0.32;0.32;;;;;;;;;;5085463;28;20060;-73
2023/02/03 02:21:02;;;;;;;1.20;0.50;;;;;;;;;;5074901;28;20070;-74
2023/02/03 02:23:45;;;;;;;0.47;0.30;;;;;;;;;;5073377;28;20044;-73
2023/02/03 02:26:31;;;;;;;0.10;0.10;;;;;;;;;;5074113;28;20079;-73
2023/02/03 02:29:17;;;;;;;0.22;0.22;;;;;;;;;;5071828;28;20127;-73
2023/02/03 02:31:54;;;;;;;0.20;0.20;;;;;;;;;;5067516;28;20048;-73
2023/02/03 02:34:28;;;;;;;0.35;0.35;;;;;;;;;;5079209;28;20045;-72
2023/02/03 02:37:05;;;;;;;0.20;0.20;;;;;;;;;;5077685;28;20424;-72
2023/02/03 02:39:38;;;;;;;0.40;0.40;;;;;;;;;;5055916;28;20102;-73
2023/02/03 02:42:09;;;;;;;0.30;0.30;;;;;;;;;;5071333;28;20044;-73
2023/02/03 02:44:41;;;;;;;0.20;0.20;;;;;;;;;;5081977;28;20040;-73
2023/02/03 02:47:15;;;;;;;0.28;0.28;;;;;;;;;;5079309;28;20044;-72
2023/02/03 02:49:45;;;;;;;0.50;0.50;;;;;;;;;;5077482;28;20052;-73
2023/02/03 02:52:15;;;;;;;0.63;0.57;;;;;;;;;;5074530;28;20044;-74
2023/02/03 02:54:45;;;;;;;0.15;0.15;;;;;;;;;;5073256;28;20625;-74
2023/02/03 02:57:14;;;;;;;0.75;0.75;;;;;;;;;;5070360;28;20155;-73
2023/02/03 02:59:43;;;;;;;2.10;0.45;;;;;;;;;;5079531;28;20576;-73
2023/02/03 03:02:12;;;;;;;0.20;0.20;;;;;;;;;;5080703;28;20051;-74
2023/02/03 03:04:41;;;;;;;0.85;0.50;;;;;;;;;;5082075;28;20047;-73
2023/02/03 03:07:12;;;;;;;0.32;0.25;;;;;;;;;;5074515;28;20501;-73
2023/02/03 03:09:43;;;;;;;0.10;0.10;;;;;;;;;;5077515;28;20040;-73
2023/02/03 03:12:15;;;;;;;0.45;0.45;;;;;;;;;;5072996;28;20044;-74
2023/02/03 03:14:46;;;;;;;0.30;0.30;;;;;;;;;;5077824;28;20055;-74
2023/02/03 03:17:18;;;;;;;4.05;0.20;;;;;;;;;;5084079;28;20049;-73
2023/02/03 03:19:50;;;;;;;0.30;0.30;;;;;;;;;;5074734;28;20049;-73
2023/02/03 03:22:21;;;;;;;0.20;0.20;;;;;;;;;;5068002;28;20053;-74
2023/02/03 03:24:53;;;;;;;1.20;1.20;;;;;;;;;;5082535;28;20036;-74
2023/02/03 03:27:23;;;;;;;0.20;0.10;;;;;;;;;;5072379;28;20054;-73
2023/02/03 03:29:54;;;;;;;0.30;0.30;;;;;;;;;;5072486;28;20055;-74
2023/02/03 03:32:24;;;;;;;0.35;0.35;;;;;;;;;;5084767;28;20052;-73
2023/02/03 03:34:53;;;;;;;0.35;0.35;;;;;;;;;;5079805;28;20071;-74
2023/02/03 03:37:25;;;;;;;0.20;0.20;;;;;;;;;;5073808;28;20057;-73
2023/02/03 03:39:55;;;;;;;0.60;0.52;;;;;;;;;;5079061;28;20049;-74
2023/02/03 03:42:26;;;;;;;4.57;0.45;;;;;;;;;;5068212;28;20492;-73
2023/02/03 03:44:58;;;;;;;0.10;0.10;;;;;;;;;;5075109;28;20496;-73
2023/02/03 03:47:31;;;;;;;0.30;0.30;;;;;;;;;;5081789;28;20043;-73
2023/02/03 03:50:01;;;;;;;0.17;0.17;;;;;;;;;;5075130;28;20499;-72
2023/02/03 03:52:31;;;;;;;3.05;0.88;;;;;;;;;;5079554;28;20393;-72
2023/02/03 03:55:00;;;;;;;0.38;0.28;;;;;;;;;;5069033;28;20063;-73
2023/02/03 03:57:31;;;;;;;0.10;0.10;;;;;;;;;;5070769;28;20071;-73
2023/02/03 04:00:00;;;;;;;0.10;0.10;;;;;;;;;;5076637;28;20059;-74
2023/02/03 04:02:30;;;;;;;0.55;0.47;;;;;;;;;;5081652;28;20507;-73
2023/02/03 04:05:00;;;;;;;0.20;0.20;;;;;;;;;;5071256;28;20044;-73
2023/02/03 04:07:38;;;;;;;1.05;0.50;;;;;;;;;;5072472;28;20056;-73
2023/02/03 04:10:07;;;;;;;0.30;0.30;;;;;;;;;;5075516;28;20048;-74
2023/02/03 04:12:36;;;;;;;0.20;0.20;;;;;;;;;;5074611;28;20044;-72
2023/02/03 04:15:05;;;;;;;0.45;0.45;;;;;;;;;;5070149;28;20052;-74
2023/02/03 04:17:35;;;;;;;0.50;0.38;;;;;;;;;;5080253;28;20051;-74
2023/02/03 04:20:03;;;;;;;0.47;0.35;;;;;;;;;;5061498;28;20045;-74
2023/02/03 04:22:32;;;;;;;0.20;0.20;;;;;;;;;;5078592;28;20049;-72
2023/02/03 04:25:00;;;;;;;0.73;0.60;;;;;;;;;;5077102;28;20059;-78
2023/02/03 04:27:28;;;;;;;0.98;0.73;;;;;;;;;;5069997;28;20062;-72
2023/02/03 04:29:57;;;;;;;0.30;0.30;;;;;;;;;;5073188;28;20048;-72
2023/02/03 04:32:25;;;;;;;0.30;0.30;;;;;;;;;;5072786;28;20507;-73
2023/02/03 04:34:54;;;;;;;0.22;0.22;;;;;;;;;;5081420;28;20084;-73
2023/02/03 04:37:23;;;;;;;0.63;0.63;;;;;;;;;;5075794;28;20045;-73
2023/02/03 04:39:51;;;;;;;0.20;0.20;;;;;;;;;;5081718;28;20041;-73
2023/02/03 04:42:19;;;;;;;0.38;0.38;;;;;;;;;;5065453;28;20489;-72
2023/02/03 04:44:48;;;;;;;0.20;0.20;;;;;;;;;;5079547;28;20074;-73
2023/02/03 04:47:16;;;;;;;0.20;0.20;;;;;;;;;;5070541;28;20059;-73
2023/02/03 04:49:45;;;;;;;0.20;0.20;;;;;;;;;;5082591;28;20063;-73
2023/02/03 04:52:15;;;;;;;0.10;0.10;;;;;;;;;;5077216;28;20484;-73
2023/02/03 04:54:43;;;;;;;8.43;0.55;;;;;;;;;;5066906;28;20048;-72
2023/02/03 04:57:11;;;;;;;0.20;0.20;;;;;;;;;;5072352;28;20124;-74
2023/02/03 04:59:39;;;;;;;0.15;0.15;;;;;;;;;;5081297;28;20408;-73
2023/02/03 05:02:08;;;;;;;0.20;0.20;;;;;;;;;;5073536;28;20040;-73
2023/02/03 05:04:36;;;;;;;1.38;0.65;;;;;;;;;;5074648;28;20044;-73
2023/02/03 05:07:04;;;;;;;0.32;0.32;;;;;;;;;;5078519;28;20058;-77
2023/02/03 05:09:34;;;;;;;0.85;0.50;;;;;;;;;;5072903;28;20044;-74
2023/02/03 05:12:02;;;;;;;1.65;0.32;;;;;;;;;;5066227;28;20045;-74
2023/02/03 05:14:30;;;;;;;0.10;0.10;;;;;;;;;;5085440;28;20502;-73
2023/02/03 05:16:58;;;;;;;0.20;0.13;;;;;;;;;;5083250;28;20049;-76
2023/02/03 05:19:27;;;;;;;2.15;0.50;;;;;;;;;;5070856;28;20111;-73
2023/02/03 05:21:55;;;;;;;0.52;0.47;;;;;;;;;;5062448;28;20055;-75
2023/02/03 05:24:23;;;;;;;0.20;0.20;;;;;;;;;;5084720;28;20043;-74
2023/02/03 05:26:53;;;;;;;0.57;0.57;;;;;;;;;;5075949;28;20053;-75
2023/02/03 05:29:21;;;;;;;0.32;0.32;;;;;;;;;;5071674;28;20051;-73
2023/02/03 05:31:49;;;;;;;0.35;0.35;;;;;;;;;;5067745;28;21305;-73
2023/02/03 05:34:18;;;;;;;2.15;0.50;;;;;;;;;;5072935;28;20048;-73
2023/02/03 05:36:46;;;;;;;0.10;0.10;;;;;;;;;;5070665;28;20053;-73
2023/02/03 05:39:14;;;;;;;0.68;0.38;;;;;;;;;;5068465;28;20753;-73
2023/02/03 05:41:51;;;;;;;13.15;1.00;;;;;;;;;;5064890;28;20409;-74
2023/02/03 05:44:21;;;;;;;0.90;0.75;;;;;;;;;;5081129;28;20075;-75
2023/02/03 05:46:50;;;;;;;0.45;0.45;;;;;;;;;;5062644;28;20489;-74
2023/02/03 05:49:18;;;;;;;0.17;0.13;;;;;;;;;;5074967;28;20050;-74
2023/02/03 05:51:47;;;;;;;0.30;0.30;;;;;;;;;;5068338;28;20044;-74
2023/02/03 05:54:15;;;;;;;0.10;0.10;;;;;;;;;;5069569;28;20063;-73
2023/02/03 05:56:43;;;;;;;0.25;0.25;;;;;;;;;;5065563;28;20044;-75
2023/02/03 05:59:12;;;;;;;0.15;0.15;;;;;;;;;;5065632;28;20175;-73
2023/02/03 06:01:42;;;;;;;0.20;0.20;;;;;;;;;;5069704;28;20143;-74
2023/02/03 06:04:10;;;;;;;3.42;0.20;;;;;;;;;;5068208;28;20056;-72
2023/02/03 06:06:39;;;;;;;0.20;0.20;;;;;;;;;;5065501;28;20047;-75
2023/02/03 06:09:08;;;;;;;0.20;0.20;;;;;;;;;;5068074;28;20063;-74
2023/02/03 06:11:36;;;;;;;0.30;0.28;;;;;;;;;;5076275;28;20130;-73
2023/02/03 06:14:05;;;;;;;0.17;0.17;;;;;;;;;;5072454;28;20110;-73
2023/02/03 06:16:33;;;;;;;0.25;0.20;;;;;;;;;;5070692;28;20040;-72
2023/02/03 06:19:03;;;;;;;1.00;0.47;;;;;;;;;;5070093;28;20056;-73
2023/02/03 06:21:31;;;;;;;2.08;0.28;;;;;;;;;;5067170;28;20131;-72
2023/02/03 06:23:59;;;;;;;0.50;0.40;;;;;;;;;;5069923;28;20047;-72
2023/02/03 06:26:28;;;;;;;0.35;0.35;;;;;;;;;;5070301;28;20052;-73
2023/02/03 06:28:56;;;;;;;0.10;0.10;;;;;;;;;;5066985;28;20072;-74
2023/02/03 06:31:24;;;;;;;0.10;0.10;;;;;;;;;;5070297;28;20556;-73
2023/02/03 06:33:53;;;;;;;0.20;0.20;;;;;;;;;;5068392;28;20048;-75
2023/02/03 06:36:23;;;;;;;0.22;0.22;;;;;;;;;;5065377;28;20052;-73
2023/02/03 06:38:51;;;;;;;0.20;0.20;;;;;;;;;;5068406;28;20178;-73
2023/02/03 06:41:19;;;;;;;3.28;0.85;;;;;;;;;;5066025;28;20048;-74
2023/02/03 06:43:49;;;;;;;0.10;0.10;;;;;;;;;;5068244;28;20044;-76
2023/02/03 06:46:18;;;;;;;0.30;0.30;;;;;;;;;;5069484;28;20044;-76
2023/02/03 06:48:46;;;;;;;0.30;0.30;;;;;;;;;;5069015;28;20106;-76
2023/02/03 06:51:15;;;;;;;0.40;0.40;;;;;;;;;;5062475;28;20091;-75
2023/02/03 06:53:44;;;;;;;0.25;0.25;;;;;;;;;;5033750;28;20091;-75
2023/02/03 06:56:12;;;;;;;0.20;0.20;;;;;;;;;;5044866;28;20046;-75
2023/02/03 06:58:41;;;;;;;0.63;0.30;;;;;;;;;;5047897;28;20041;-75
2023/02/03 07:01:09;;;;;;;0.10;0.10;;;;;;;;;;5054008;28;20055;-73
2023/02/03 07:03:38;;;;;;;1.40;0.32;;;;;;;;;;5047563;28;20036;-76
2023/02/03 07:06:07;;;;;;;0.30;0.30;;;;;;;;;;5052218;28;20041;-75
2023/02/03 07:08:35;;;;;;;7.00;0.70;;;;;;;;;;5049687;28;20125;-74
2023/02/03 07:11:05;;;;;;;0.57;0.40;;;;;;;;;;5051216;28;20080;-74
2023/02/03 07:13:33;;;;;;;0.10;0.10;;;;;;;;;;5055296;28;20139;-76
2023/02/03 07:16:02;;;;;;;0.38;0.38;;;;;;;;;;5047705;28;20060;-75
2023/02/03 07:18:30;;;;;;;0.70;0.40;;;;;;;;;;5052358;28;20576;-75
2023/02/03 07:21:14;;;;;;;0.10;0.10;;;;;;;;;;5055606;28;20049;-75
2023/02/03 07:23:42;;;;;;;0.25;0.25;;;;;;;;;;5051564;28;20041;-75
2023/02/03 07:26:12;;;;;;;0.93;0.57;;;;;;;;;;5053511;28;20493;-75
2023/02/03 07:28:40;;;;;;;0.30;0.30;;;;;;;;;;5049721;28;20053;-75
2023/02/03 07:31:09;;;;;;;0.75;0.60;;;;;;;;;;5046350;28;20045;-77
2023/02/03 07:33:37;;;;;;;0.20;0.20;;;;;;;;;;5052859;28;20057;-75
2023/02/03 07:36:07;;;;;;;0.43;0.40;;;;;;;;;;5050200;28;20045;-76
2023/02/03 07:38:36;;;;;;;1.75;0.20;;;;;;;;;;5051047;28;20037;-75
2023/02/03 07:41:05;;;;;;;0.20;0.20;;;;;;;;;;5046669;28;20923;-76
2023/02/03 07:43:35;;;;;;;0.35;0.22;;;;;;;;;;5050619;28;20076;-73
2023/02/03 07:46:03;;;;;;;0.20;0.20;;;;;;;;;;5042587;28;20045;-73
2023/02/03 07:48:32;;;;;;;0.43;0.43;;;;;;;;;;5054985;28;20063;-72
2023/02/03 07:51:01;;;;;;;0.20;0.10;;;;;;;;;;5043321;28;20041;-73
2023/02/03 07:53:30;;;;;;;0.13;0.13;;;;;;;;;;5069868;28;20424;-73
2023/02/03 07:56:00;;;;;;;2.08;0.55;;;;;;;;;;5071898;28;20102;-72
2023/02/03 07:58:29;;;;;;;0.10;0.10;;;;;;;;;;5064781;28;20067;-74
2023/02/03 08:01:01;;;;;;;0.30;0.13;;;;;;;;;;5068910;28;20441;-73
2023/02/03 08:03:33;;;;;;;0.15;0.15;;;;;;;;;;5065795;28;20049;-75
2023/02/03 08:06:11;;;;;;;0.30;0.30;;;;;;;;;;5068455;28;20511;-71
2023/02/03 08:08:43;;;;;;;0.32;0.30;;;;;;;;;;5067946;28;20063;-75
2023/02/03 08:11:13;;;;;;;0.20;0.20;;;;;;;;;;5071116;28;20144;-78
2023/02/03 08:13:41;;;;;;;0.10;0.10;;;;;;;;;;5075431;28;20075;-74
2023/02/03 08:16:11;;;;;;;0.10;0.10;;;;;;;;;;5071436;28;20057;-76
2023/02/03 08:18:39;;;;;;;1.65;0.22;;;;;;;;;;5070001;28;20041;-74
2023/02/03 08:21:08;;;;;;;0.20;0.20;;;;;;;;;;5058519;28;20155;-75
2023/02/03 08:23:37;;;;;;;0.10;0.10;;;;;;;;;;5062503;28;20044;-74
2023/02/03 08:26:06;;;;;;;0.10;0.10;;;;;;;;;;5071113;28;20512;-73
2023/02/03 08:28:34;;;;;;;0.90;0.40;;;;;;;;;;5074650;28;20055;-74
2023/02/03 08:31:09;;;;;;;0.10;0.10;;;;;;;;;;5070658;28;20465;-75
2023/02/03 08:33:40;;;;;;;0.20;0.20;;;;;;;;;;5070998;28;20106;-75
2023/02/03 08:36:10;;;;;;;0.20;0.20;;;;;;;;;;5072092;28;20052;-75
2023/02/03 08:38:39;;;;;;;1.20;0.20;;;;;;;;;;5069242;28;20048;-77
2023/02/03 08:41:11;;;;;;;0.22;0.15;;;;;;;;;;5069317;28;20158;-74
2023/02/03 08:43:40;;;;;;;0.38;0.38;;;;;;;;;;5078668;28;20044;-74
2023/02/03 08:46:09;;;;;;;0.10;0.10;;;;;;;;;;5074751;28;20051;-75
2023/02/03 08:48:40;;;;;;;0.30;0.30;;;;;;;;;;5081256;28;20561;-75
2023/02/03 08:51:12;;;;;;;11.50;0.75;;;;;;;;;;5082606;28;20056;-75
2023/02/03 08:53:41;;;;;;;0.90;0.35;;;;;;;;;;5071694;28;20043;-75
2023/02/03 08:56:10;;;;;;;3.58;0.25;;;;;;;;;;5070967;28;20048;-76
2023/02/03 08:58:39;;;;;;;0.10;0.10;;;;;;;;;;5076937;28;20056;-75
2023/02/03 09:01:08;;;;;;;0.30;0.30;;;;;;;;;;5082499;28;20072;-75
2023/02/03 09:03:37;;;;;;;0.10;0.10;;;;;;;;;;5060356;28;20084;-75
2023/02/03 09:06:10;;;;;;;6.40;0.35;;;;;;;;;;5070670;28;20048;-75
2023/02/03 09:08:39;;;;;;;0.13;0.13;;;;;;;;;;5058845;28;20505;-75
2023/02/03 09:11:09;;;;;;;0.20;0.20;;;;;;;;;;5073429;28;20052;-76
2023/02/03 09:13:38;;;;;;;0.13;0.13;;;;;;;;;;5072467;28;20052;-74
2023/02/03 09:16:07;;;;;;;0.17;0.17;;;;;;;;;;5071544;28;20155;-74
2023/02/03 09:18:36;;;;;;;0.10;0.10;;;;;;;;;;5067204;28;20471;-73
2023/02/03 09:21:06;;;;;;;0.10;0.10;;;;;;;;;;5070973;28;20052;-74
2023/02/03 09:23:36;;;;;;;0.10;0.10;;;;;;;;;;5065660;28;20041;-73
2023/02/03 09:26:05;;;;;;;0.30;0.22;;;;;;;;;;5070561;28;20052;-74
2023/02/03 09:28:34;;;;;;;0.20;0.20;;;;;;;;;;5068923;28;20045;-75
2023/02/03 09:31:04;;;;;;;0.32;0.32;;;;;;;;;;5070532;28;20044;-74
2023/02/03 09:33:33;;;;;;;0.63;0.30;;;;;;;;;;5062383;28;20099;-73
2023/02/03 09:36:02;;;;;;;0.32;0.32;;;;;;;;;;5069950;28;20121;-74
2023/02/03 09:38:31;;;;;;;0.20;0.20;;;;;;;;;;5070219;28;20050;-79
2023/02/03 09:41:04;;;;;;;0.20;0.20;;;;;;;;;;5075324;28;20041;-74
2023/02/03 09:43:42;;;;;;;0.28;0.25;;;;;;;;;;5068890;28;20090;-73
2023/02/03 09:46:13;;;;;;;0.20;0.20;;;;;;;;;;5064887;28;20078;-74
2023/02/03 09:48:44;;;;;;;0.20;0.20;;;;;;;;;;5073888;28;20123;-74
2023/02/03 09:51:19;;;;;;;0.35;0.35;;;;;;;;;;5068626;28;20075;-74
2023/02/03 09:53:51;;;;;;;0.17;0.17;;;;;;;;;;5066551;28;20076;-74
2023/02/03 09:56:24;;;;;;;0.70;0.20;;;;;;;;;;5069579;28;20056;-76
2023/02/03 09:58:53;;;;;;;0.38;0.35;;;;;;;;;;5057734;28;20051;-73
2023/02/03 10:01:22;;;;;;;0.10;0.10;;;;;;;;;;5061387;28;20136;-74
2023/02/03 10:03:53;;;;;;;0.30;0.30;;;;;;;;;;5066756;28;20042;-73
2023/02/03 10:06:28;;;;;;;0.10;0.10;;;;;;;;;;5065838;28;20041;-73
2023/02/03 10:09:05;;;;;;;0.40;0.40;;;;;;;;;;5062472;28;20143;-73
2023/02/03 10:11:43;;;;;;;5.75;0.60;;;;;;;;;;5060487;28;20344;-74
2023/02/03 10:14:21;;;;;;;0.55;0.32;;;;;;;;;;5074653;28;20667;-74
2023/02/03 10:16:57;;;;;;;0.10;0.10;;;;;;;;;;5067035;28;20105;-74
2023/02/03 10:19:28;;;;;;;0.30;0.20;;;;;;;;;;5069467;28;20083;-72
2023/02/03 10:21:59;;;;;;;1.27;0.65;;;;;;;;;;5069268;28;20053;-74
2023/02/03 10:24:29;;;;;;;0.20;0.20;;;;;;;;;;5075578;28;20065;-74
2023/02/03 10:27:00;;;;;;;0.20;0.20;;;;;;;;;;5068202;28;20512;-74
2023/02/03 10:29:32;;;;;;;0.20;0.20;;;;;;;;;;5069524;28;20057;-74
2023/02/03 10:32:01;;;;;;;0.20;0.20;;;;;;;;;;5071844;28;20441;-74
2023/02/03 10:34:30;;;;;;;0.10;0.10;;;;;;;;;;5065286;28;20052;-73
2023/02/03 10:36:59;;;;;;;0.25;0.25;;;;;;;;;;5064820;28;20132;-72
2023/02/03 10:39:33;;;;;;;0.10;0.10;;;;;;;;;;5066093;28;20070;-72
2023/02/03 10:42:05;;;;;;;0.10;0.10;;;;;;;;;;5064469;28;20492;-71
2023/02/03 10:44:37;;;;;;;0.10;0.10;;;;;;;;;;5079616;28;20116;-72
2023/02/03 10:47:23;;;;;;;0.25;0.25;;;;;;;;;;5073645;28;20087;-71
2023/02/03 10:49:53;;;;;;;2.13;0.55;;;;;;;;;;5072673;28;20447;-72
2023/02/03 10:52:26;;;;;;;0.20;0.20;;;;;;;;;;5075391;28;20147;-74
2023/02/03 10:54:55;;;;;;;0.10;0.10;;;;;;;;;;5056946;28;20496;-72
2023/02/03 10:57:25;;;;;;;0.20;0.20;;;;;;;;;;5071780;28;20102;-73
2023/02/03 11:00:03;;;;;;;0.25;0.20;;;;;;;;;;5073861;28;20485;-74
2023/02/03 11:02:32;;;;;;;2.03;0.43;;;;;;;;;;5072020;28;20471;-74
2023/02/03 11:05:11;;;;;;;0.10;0.10;;;;;;;;;;5071098;28;20045;-73
2023/02/03 11:07:39;;;;;;;0.30;0.30;;;;;;;;;;5068916;28;20044;-75
2023/02/03 11:10:23;;;;;;;1.77;0.45;;;;;;;;;;5062267;28;20531;-71
2023/02/03 11:13:09;;;;;;;1.08;0.35;;;;;;;;;;5074841;28;21005;-72
2023/02/03 11:15:38;;;;;;;0.20;0.20;;;;;;;;;;5066684;28;20510;-74
2023/02/03 11:18:23;;;;;;;2.35;0.20;;;;;;;;;;5069642;28;20049;-74
2023/02/03 11:20:52;;;;;;;1.25;0.50;;;;;;;;;;5070468;28;20412;-72
2023/02/03 11:23:21;;;;;;;0.10;0.10;;;;;;;;;;5072464;28;20058;-75
2023/02/03 11:25:51;;;;;;;0.32;0.32;;;;;;;;;;5070824;28;20056;-74
2023/02/03 11:28:21;;;;;;;0.20;0.20;;;;;;;;;;5069299;28;20110;-73
2023/02/03 11:30:55;;;;;;;0.47;0.30;;;;;;;;;;5071404;28;20057;-74
2023/02/03 11:33:28;;;;;;;0.10;0.10;;;;;;;;;;5071234;28;20044;-76
2023/02/03 11:35:58;;;;;;;1.33;0.20;;;;;;;;;;5071678;28;20059;-76
2023/02/03 11:38:31;;;;;;;0.17;0.17;;;;;;;;;;5083586;28;20135;-71
2023/02/03 11:41:00;;;;;;;0.45;0.30;;;;;;;;;;5069557;28;20036;-72
2023/02/03 11:43:31;;;;;;;0.10;0.10;;;;;;;;;;5074148;28;20045;-72
2023/02/03 11:46:01;;;;;;;0.88;0.52;;;;;;;;;;5072088;28;20056;-72
2023/02/03 11:48:32;;;;;;;1.20;0.32;;;;;;;;;;5075877;28;20044;-73
2023/02/03 11:51:05;;;;;;;0.28;0.25;;;;;;;;;;5071538;28;20444;-74
2023/02/03 11:53:43;;;;;;;0.30;0.30;;;;;;;;;;5077234;28;20409;-71
2023/02/03 11:56:32;;;;;;;1.00;0.55;;;;;;;;;;5069635;28;20309;-76
2023/02/03 11:59:18;;;;;;;0.22;0.22;;;;;;;;;;5077029;28;20052;-72
2023/02/03 12:01:58;;;;;;;0.10;0.10;;;;;;;;;;5082000;28;20117;-73
2023/02/03 12:04:42;;;;;;;0.35;0.35;;;;;;;;;;5075829;28;21131;-73
2023/02/03 12:07:24;;;;;;;0.20;0.20;;;;;;;;;;5069408;28;20409;-73
2023/02/03 12:09:55;;;;;;;0.52;0.52;;;;;;;;;;5071330;28;20117;-71
2023/02/03 12:12:38;;;;;;;0.38;0.30;;;;;;;;;;5078871;28;20051;-71
2023/02/03 12:15:17;;;;;;;0.28;0.28;;;;;;;;;;5067730;28;20044;-76
2023/02/03 12:17:55;;;;;;;1.85;0.35;;;;;;;;;;5069020;28;20055;-71
2023/02/03 12:20:35;;;;;;;0.28;0.28;;;;;;;;;;5075648;28;20052;-71
2023/02/03 12:23:06;;;;;;;0.10;0.10;;;;;;;;;;5069542;28;20064;-73
2023/02/03 12:25:39;;;;;;;0.90;0.45;;;;;;;;;;5066604;28;20083;-76
2023/02/03 12:28:13;;;;;;;0.10;0.10;;;;;;;;;;5070743;28;20052;-73
2023/02/03 12:31:01;;;;;;;0.10;0.10;;;;;;;;;;5065016;28;20462;-72
2023/02/03 12:33:33;;;;;;;0.10;0.10;;;;;;;;;;5069712;28;20486;-76
2023/02/03 12:36:07;;;;;;;0.17;0.17;;;;;;;;;;5068672;28;20127;-75
2023/02/03 12:38:37;;;;;;;0.10;0.10;;;;;;;;;;5055186;28;20055;-71
2023/02/03 12:41:08;;;;;;;0.20;0.20;;;;;;;;;;5056832;28;20044;-72
2023/02/03 12:43:38;;;;;;;0.10;0.10;;;;;;;;;;5063260;28;20128;-73
2023/02/03 12:46:15;;;;;;;1.45;0.43;;;;;;;;;;5070608;28;20377;-71
2023/02/03 12:48:49;;;;;;;0.80;0.45;;;;;;;;;;5065019;28;20158;-72
2023/02/03 12:51:25;;;;;;;0.30;0.25;;;;;;;;;;5057963;28;20102;-75
2023/02/03 12:53:55;;;;;;;0.65;0.40;;;;;;;;;;5060349;28;20405;-70
2023/02/03 12:56:27;;;;;;;0.68;0.40;;;;;;;;;;5069523;28;20052;-71
2023/02/03 12:58:57;;;;;;;4.68;0.40;;;;;;;;;;5066602;28;20045;-72
2023/02/03 13:01:29;;;;;;;2.42;0.73;;;;;;;;;;5071548;28;20060;-71
2023/02/03 13:04:01;;;;;;;0.10;0.10;;;;;;;;;;5067773;28;20123;-71
2023/02/03 13:06:33;;;;;;;0.22;0.22;;;;;;;;;;5065999;28;20052;-71
2023/02/03 13:09:03;;;;;;;0.85;0.85;;;;;;;;;;5067575;28;20090;-73
2023/02/03 13:11:34;;;;;;;0.10;0.10;;;;;;;;;;5058772;28;20064;-72
2023/02/03 13:14:08;;;;;;;0.10;0.10;;;;;;;;;;5071009;28;20048;-71
2023/02/03 13:16:39;;;;;;;0.20;0.20;;;;;;;;;;5070152;28;20127;-71
2023/02/03 13:19:12;;;;;;;0.20;0.20;;;;;;;;;;5069336;28;20317;-72
2023/02/03 13:21:41;;;;;;;0.13;0.13;;;;;;;;;;5070741;28;20124;-72
2023/02/03 13:24:11;;;;;;;1.75;0.47;;;;;;;;;;5069019;28;20044;-72
2023/02/03 13:26:49;;;;;;;0.35;0.35;;;;;;;;;;5068634;28;20517;-72
2023/02/03 13:29:26;;;;;;;0.10;0.10;;;;;;;;;;5068482;28;20048;-71
2023/02/03 13:32:03;;;;;;;0.30;0.30;;;;;;;;;;5069381;28;20417;-71
2023/02/03 13:34:46;;;;;;;0.17;0.17;;;;;;;;;;5069609;28;20135;-74
2023/02/03 13:37:29;;;;;;;0.38;0.38;;;;;;;;;;5071114;28;20059;-73
2023/02/03 13:40:07;;;;;;;0.30;0.30;;;;;;;;;;5066706;28;20041;-78
2023/02/03 13:42:38;;;;;;;0.10;0.10;;;;;;;;;;5065882;28;20106;-74
2023/02/03 13:45:10;;;;;;;0.32;0.32;;;;;;;;;;5069501;28;20040;-70
2023/02/03 13:47:38;;;;;;;0.68;0.40;;;;;;;;;;5065618;28;20052;-72
2023/02/03 13:50:18;;;;;;;3.95;0.28;;;;;;;;;;5079396;28;20136;-70
2023/02/03 13:52:54;;;;;;;0.20;0.20;;;;;;;;;;5069545;28;20041;-71
2023/02/03 13:55:34;;;;;;;0.30;0.30;;;;;;;;;;5069993;28;20071;-71
2023/02/03 13:58:03;;;;;;;2.00;1.85;;;;;;;;;;5071279;28;20135;-72
2023/02/03 14:01:05;;;;;;;0.20;0.20;;;;;;;;;;5069670;28;20047;-72
2023/02/03 14:03:46;;;;;;;2.30;0.17;;;;;;;;;;4982837;28;20069;-71
2023/02/03 14:06:33;;;;;;;0.40;0.30;;;;;;;;;;4981145;28;20065;-74
2023/02/03 14:09:04;;;;;;;0.63;0.40;;;;;;;;;;5035532;28;20052;-74
2023/02/03 14:11:40;;;;;;;0.10;0.10;;;;;;;;;;5061626;28;20146;-75
2023/02/03 14:14:23;;;;;;;0.10;0.10;;;;;;;;;;5077671;28;20059;-71
2023/02/03 14:16:53;;;;;;;0.13;0.13;;;;;;;;;;5071441;28;20045;-73
2023/02/03 14:19:37;;;;;;;0.38;0.28;;;;;;;;;;5087738;28;20103;-74
2023/02/03 14:22:07;;;;;;;0.10;0.10;;;;;;;;;;5069495;28;20201;-73
2023/02/03 14:24:39;;;;;;;0.45;0.20;;;;;;;;;;5068245;28;20053;-72
2023/02/03 14:27:17;;;;;;;0.20;0.20;;;;;;;;;;5070514;28;20048;-72
2023/02/03 14:29:45;;;;;;;0.20;0.20;;;;;;;;;;5069695;28;20091;-72
2023/02/03 14:32:14;;;;;;;0.20;0.20;;;;;;;;;;5074979;28;20047;-72
2023/02/03 14:34:44;;;;;;;0.20;0.20;;;;;;;;;;5074494;28;20132;-72
2023/02/03 14:37:17;;;;;;;0.30;0.22;;;;;;;;;;5057276;28;20053;-71
2023/02/03 14:40:09;;;;;;;0.75;0.30;;;;;;;;;;5071643;28;20489;-70
2023/02/03 14:42:56;;;;;;;0.10;0.10;;;;;;;;;;5070523;28;20052;-71
2023/02/03 14:45:44;;;;;;;0.10;0.10;;;;;;;;;;5070696;28;20144;-74
2023/02/03 14:48:21;;;;;;;0.20;0.20;;;;;;;;;;5068605;28;20120;-71
2023/02/03 14:50:56;;;;;;;0.30;0.30;;;;;;;;;;5071638;28;20060;-72
2023/02/03 14:53:40;;;;;;;0.10;0.10;;;;;;;;;;5068364;28;20451;-75
2023/02/03 14:56:14;;;;;;;0.43;0.43;;;;;;;;;;5069504;28;20057;-72
2023/02/03 14:58:45;;;;;;;0.10;0.10;;;;;;;;;;5071543;28;20056;-72
2023/02/03 15:01:28;;;;;;;0.47;0.43;;;;;;;;;;5067174;28;20524;-72
2023/02/03 15:04:21;;;;;;;0.17;0.17;;;;;;;;;;5061906;28;20045;-75
2023/02/03 15:06:50;;;;;;;0.43;0.43;;;;;;;;;;5051054;28;20056;-72
2023/02/03 15:09:23;;;;;;;0.10;0.10;;;;;;;;;;5073231;28;20647;-72